Saint Francis River (Missouri), Mill Creek (07035800)

StateMissouriLatestHigh (1340 cfs)
RiverSaint Francis RiverRatingObservedEstimated
Updated2021-04-10 23:30 (32 minutes ago)Flood - The river is flooding. Obstacles can be treacherous or deadly. The river should be avoided at this stage for casual trips and definitely for the inexperienced. Trips should be attempted only with protective gear and equipment.Flood(none)2961
Discharge1340 cfs (median: 415 cfs)High - The river is high and potentially dangerous, especially for the young and / or inexperienced. Normal stream obstacles are sometimes difficult to navigate. Extended distances can be attempted, but canoe travel may not be advisable.High(none)1113
Height4.14 feetGood - Conditions are ideal for a canoe or kayak. Boats typically will drag on fewer than one-quarter of riffles, if at all, and portages are unnecessary or rare. Normal float lengths can be attempted without a problem.Good(none)420
TrendFalling (rising over 24 hours)Low - River is low but can still be floated. Some riffles are okay but most come with significant dragging and might need a portage. Float lengths should be reduced to accommodate low flow, dragging, and portages.Low(none)115
USGSExternal icon USGS Site (External icon Google Maps)Poor - River is too low to float comfortably. Most or all riffles will drag or must be portaged and some obstacles (such as slick shelf rock) cause undue problems. Avoid the river at this stage for casual paddling trips.Poor(none)28

Trending Data

Plot Image

Trips for Saint Francis River (Missouri), Mill Creek (07035800)

DateStartEndDistanceConditionDischargeHeightFishingDetails

A total of 0 rows are displayed.

Condition Descriptions

Fishing Conditions

Fish Species

Notes

Classic Trip List

The classic River Trips application is still available for use. It is updated with the new system using a data retrofit. It is no longer maintained. The original River Trips application is no longer updated (as of 1 Dec 2016) but can be checked for errors or for the condition of the data before it was converted to the new system.

Gauge Data Table

ObservationHeightDischargeMaximum
Discharge
Minimum
Discharge
Mean
Discharge
P05P10P20P25P50
(Median)
P75P80P90P95
2021-04-10 23:30 4.14 1340 20000 (2008) 164 (2000) 1330 178 208 272 283 416 729 806 3260 9710
2021-04-10 23:00 4.16 1360 20000 (2008) 164 (2000) 1330 178 208 272 283 416 729 806 3260 9710
2021-04-10 22:30 4.16 1360 20000 (2008) 164 (2000) 1330 178 208 272 283 416 729 806 3260 9710
2021-04-10 22:00 4.17 1360 20000 (2008) 164 (2000) 1330 178 208 272 283 416 729 806 3260 9710
2021-04-10 21:30 4.18 1370 20000 (2008) 164 (2000) 1330 178 208 272 283 416 729 806 3260 9710
2021-04-10 21:00 4.17 1360 20000 (2008) 164 (2000) 1330 178 208 272 283 416 729 806 3260 9710
2021-04-10 20:30 4.18 1370 20000 (2008) 164 (2000) 1330 178 208 272 283 416 729 806 3260 9710
2021-04-10 20:00 4.18 1370 20000 (2008) 164 (2000) 1330 178 208 272 283 416 729 806 3260 9710
2021-04-10 19:30 4.17 1360 20000 (2008) 164 (2000) 1330 178 208 272 283 416 729 806 3260 9710
2021-04-10 19:00 4.17 1360 20000 (2008) 164 (2000) 1330 178 208 272 283 416 729 806 3260 9710
2021-04-10 18:30 4.17 1360 20000 (2008) 164 (2000) 1330 178 208 272 283 416 729 806 3260 9710
2021-04-10 18:00 4.16 1360 20000 (2008) 164 (2000) 1330 178 208 272 283 416 729 806 3260 9710
2021-04-10 17:30 4.16 1360 20000 (2008) 164 (2000) 1330 178 208 272 283 416 729 806 3260 9710
2021-04-10 17:00 4.16 1360 20000 (2008) 164 (2000) 1330 178 208 272 283 416 729 806 3260 9710
2021-04-10 16:30 4.16 1360 20000 (2008) 164 (2000) 1330 178 208 272 283 416 729 806 3260 9710
2021-04-10 16:00 4.14 1340 20000 (2008) 164 (2000) 1330 178 208 272 283 416 729 806 3260 9710
2021-04-10 15:30 4.13 1330 20000 (2008) 164 (2000) 1330 178 208 272 283 416 729 806 3260 9710
2021-04-10 15:00 4.13 1330 20000 (2008) 164 (2000) 1330 178 208 272 283 416 729 806 3260 9710
2021-04-10 14:30 4.13 1330 20000 (2008) 164 (2000) 1330 178 208 272 283 416 729 806 3260 9710
2021-04-10 14:00 4.12 1320 20000 (2008) 164 (2000) 1330 178 208 272 283 416 729 806 3260 9710
2021-04-10 13:30 4.12 1320 20000 (2008) 164 (2000) 1330 178 208 272 283 416 729 806 3260 9710
2021-04-10 13:00 4.10 1310 20000 (2008) 164 (2000) 1330 178 208 272 283 416 729 806 3260 9710
2021-04-10 12:30 4.10 1310 20000 (2008) 164 (2000) 1330 178 208 272 283 416 729 806 3260 9710
2021-04-10 12:00 4.09 1300 20000 (2008) 164 (2000) 1330 178 208 272 283 416 729 806 3260 9710
2021-04-10 11:30 4.08 1290 20000 (2008) 164 (2000) 1330 178 208 272 283 416 729 806 3260 9710
2021-04-10 11:00 4.07 1290 20000 (2008) 164 (2000) 1330 178 208 272 283 416 729 806 3260 9710
2021-04-10 10:30 4.07 1290 20000 (2008) 164 (2000) 1330 178 208 272 283 416 729 806 3260 9710
2021-04-10 10:00 4.06 1280 20000 (2008) 164 (2000) 1330 178 208 272 283 416 729 806 3260 9710
2021-04-10 09:30 4.06 1280 20000 (2008) 164 (2000) 1330 178 208 272 283 416 729 806 3260 9710
2021-04-10 09:00 4.05 1270 20000 (2008) 164 (2000) 1330 178 208 272 283 416 729 806 3260 9710
2021-04-10 08:30 4.04 1260 20000 (2008) 164 (2000) 1330 178 208 272 283 416 729 806 3260 9710
2021-04-10 08:00 4.03 1260 20000 (2008) 164 (2000) 1330 178 208 272 283 416 729 806 3260 9710
2021-04-10 07:30 4.02 1250 20000 (2008) 164 (2000) 1330 178 208 272 283 416 729 806 3260 9710
2021-04-10 07:00 4.01 1240 20000 (2008) 164 (2000) 1330 178 208 272 283 416 729 806 3260 9710
2021-04-10 06:30 3.99 1230 20000 (2008) 164 (2000) 1330 178 208 272 283 416 729 806 3260 9710
2021-04-10 06:00 3.99 1230 20000 (2008) 164 (2000) 1330 178 208 272 283 416 729 806 3260 9710
2021-04-10 05:30 3.99 1230 20000 (2008) 164 (2000) 1330 178 208 272 283 416 729 806 3260 9710
2021-04-10 05:00 3.99 1230 20000 (2008) 164 (2000) 1330 178 208 272 283 416 729 806 3260 9710
2021-04-10 04:30 3.99 1230 20000 (2008) 164 (2000) 1330 178 208 272 283 416 729 806 3260 9710
2021-04-10 04:00 3.99 1230 20000 (2008) 164 (2000) 1330 178 208 272 283 416 729 806 3260 9710
2021-04-10 03:30 4.00 1230 20000 (2008) 164 (2000) 1330 178 208 272 283 416 729 806 3260 9710
2021-04-10 03:00 4.00 1230 20000 (2008) 164 (2000) 1330 178 208 272 283 416 729 806 3260 9710
2021-04-10 02:30 4.01 1240 20000 (2008) 164 (2000) 1330 178 208 272 283 416 729 806 3260 9710
2021-04-10 02:00 4.01 1240 20000 (2008) 164 (2000) 1330 178 208 272 283 416 729 806 3260 9710
2021-04-10 01:30 4.01 1240 20000 (2008) 164 (2000) 1330 178 208 272 283 416 729 806 3260 9710
2021-04-10 01:00 4.01 1240 20000 (2008) 164 (2000) 1330 178 208 272 283 416 729 806 3260 9710
2021-04-10 00:30 3.97 1210 20000 (2008) 164 (2000) 1330 178 208 272 283 416 729 806 3260 9710
2021-04-10 00:00 3.95 1200 20000 (2008) 164 (2000) 1330 178 208 272 283 416 729 806 3260 9710

A total of 48 rows are displayed for years 1987 through 2020.